sensor_id;sensor_type;location;lat;lon;timestamp;temperature;humidity
69393;SHT31;56582;44.624;20.378;2023-08-01T00:01:45;19.15;76.46
69393;SHT31;56582;44.624;20.378;2023-08-01T00:04:11;19.08;76.99
69393;SHT31;56582;44.624;20.378;2023-08-01T00:06:36;19.12;76.73
69393;SHT31;56582;44.624;20.378;2023-08-01T00:09:02;19.12;76.79
69393;SHT31;56582;44.624;20.378;2023-08-01T00:11:27;19.07;76.87
69393;SHT31;56582;44.624;20.378;2023-08-01T00:13:53;18.98;77.54
69393;SHT31;56582;44.624;20.378;2023-08-01T00:16:18;18.94;77.40
69393;SHT31;56582;44.624;20.378;2023-08-01T00:18:44;18.97;77.53
69393;SHT31;56582;44.624;20.378;2023-08-01T00:21:09;19.03;77.57
69393;SHT31;56582;44.624;20.378;2023-08-01T00:23:37;19.08;77.58
69393;SHT31;56582;44.624;20.378;2023-08-01T00:26:02;18.71;78.36
69393;SHT31;56582;44.624;20.378;2023-08-01T00:28:29;18.83;77.71
69393;SHT31;56582;44.624;20.378;2023-08-01T00:31:05;18.76;78.30
69393;SHT31;56582;44.624;20.378;2023-08-01T00:33:30;18.87;78.25
69393;SHT31;56582;44.624;20.378;2023-08-01T00:35:56;18.64;78.78
69393;SHT31;56582;44.624;20.378;2023-08-01T00:38:21;18.78;78.39
69393;SHT31;56582;44.624;20.378;2023-08-01T00:40:47;18.81;78.45
69393;SHT31;56582;44.624;20.378;2023-08-01T00:43:12;18.81;78.16
69393;SHT31;56582;44.624;20.378;2023-08-01T00:45:38;18.78;78.12
69393;SHT31;56582;44.624;20.378;2023-08-01T00:48:04;18.81;77.93
69393;SHT31;56582;44.624;20.378;2023-08-01T00:50:29;18.78;77.87
69393;SHT31;56582;44.624;20.378;2023-08-01T00:52:55;18.83;78.03
69393;SHT31;56582;44.624;20.378;2023-08-01T00:55:21;18.93;78.01
69393;SHT31;56582;44.624;20.378;2023-08-01T00:57:48;18.83;78.64
69393;SHT31;56582;44.624;20.378;2023-08-01T01:00:14;18.76;78.41
69393;SHT31;56582;44.624;20.378;2023-08-01T01:02:39;18.53;78.97
69393;SHT31;56582;44.624;20.378;2023-08-01T01:05:05;18.68;78.72
69393;SHT31;56582;44.624;20.378;2023-08-01T01:07:31;18.67;78.36
69393;SHT31;56582;44.624;20.378;2023-08-01T01:09:58;18.55;78.92
69393;SHT31;56582;44.624;20.378;2023-08-01T01:12:23;18.71;78.79
69393;SHT31;56582;44.624;20.378;2023-08-01T01:14:49;18.60;78.99
69393;SHT31;56582;44.624;20.378;2023-08-01T01:17:15;18.53;78.96
69393;SHT31;56582;44.624;20.378;2023-08-01T01:19:41;18.45;79.27
69393;SHT31;56582;44.624;20.378;2023-08-01T01:22:07;18.57;78.83
69393;SHT31;56582;44.624;20.378;2023-08-01T01:24:35;18.56;78.95
69393;SHT31;56582;44.624;20.378;2023-08-01T01:27:01;18.47;78.99
69393;SHT31;56582;44.624;20.378;2023-08-01T01:29:29;18.55;78.69
69393;SHT31;56582;44.624;20.378;2023-08-01T01:31:55;18.52;78.67
69393;SHT31;56582;44.624;20.378;2023-08-01T01:34:21;18.63;78.23
69393;SHT31;56582;44.624;20.378;2023-08-01T01:36:47;18.42;78.69
69393;SHT31;56582;44.624;20.378;2023-08-01T01:39:12;18.49;78.44
69393;SHT31;56582;44.624;20.378;2023-08-01T01:41:38;18.37;78.63
69393;SHT31;56582;44.624;20.378;2023-08-01T01:44:03;18.42;78.65
69393;SHT31;56582;44.624;20.378;2023-08-01T01:46:29;18.46;78.61
69393;SHT31;56582;44.624;20.378;2023-08-01T01:48:54;18.42;78.87
69393;SHT31;56582;44.624;20.378;2023-08-01T01:51:21;18.47;78.57
69393;SHT31;56582;44.624;20.378;2023-08-01T01:53:46;18.47;78.74
69393;SHT31;56582;44.624;20.378;2023-08-01T01:56:12;18.52;78.40
69393;SHT31;56582;44.624;20.378;2023-08-01T01:58:37;18.59;78.36
69393;SHT31;56582;44.624;20.378;2023-08-01T02:01:02;18.60;78.05
69393;SHT31;56582;44.624;20.378;2023-08-01T02:03:28;18.61;77.72
69393;SHT31;56582;44.624;20.378;2023-08-01T02:05:53;18.63;77.94
69393;SHT31;56582;44.624;20.378;2023-08-01T02:08:19;18.64;77.04
69393;SHT31;56582;44.624;20.378;2023-08-01T02:10:44;18.67;76.95
69393;SHT31;56582;44.624;20.378;2023-08-01T02:13:10;18.66;76.81
69393;SHT31;56582;44.624;20.378;2023-08-01T02:15:35;18.67;76.50
69393;SHT31;56582;44.624;20.378;2023-08-01T02:18:01;18.66;76.44
69393;SHT31;56582;44.624;20.378;2023-08-01T02:20:26;18.64;76.24
69393;SHT31;56582;44.624;20.378;2023-08-01T02:22:53;18.61;76.23
69393;SHT31;56582;44.624;20.378;2023-08-01T02:25:18;18.63;76.32
69393;SHT31;56582;44.624;20.378;2023-08-01T02:27:44;18.67;76.51
69393;SHT31;56582;44.624;20.378;2023-08-01T02:30:10;18.63;76.49
69393;SHT31;56582;44.624;20.378;2023-08-01T02:32:36;18.66;76.41
69393;SHT31;56582;44.624;20.378;2023-08-01T02:35:02;18.63;76.18
69393;SHT31;56582;44.624;20.378;2023-08-01T02:37:27;18.59;76.04
69393;SHT31;56582;44.624;20.378;2023-08-01T02:39:53;18.61;75.98
69393;SHT31;56582;44.624;20.378;2023-08-01T02:42:18;18.60;76.16
69393;SHT31;56582;44.624;20.378;2023-08-01T02:44:43;18.66;76.17
69393;SHT31;56582;44.624;20.378;2023-08-01T02:47:09;18.66;76.08
69393;SHT31;56582;44.624;20.378;2023-08-01T02:49:34;18.60;76.18
69393;SHT31;56582;44.624;20.378;2023-08-01T02:52:00;18.59;76.17
69393;SHT31;56582;44.624;20.378;2023-08-01T02:54:25;18.60;76.02
69393;SHT31;56582;44.624;20.378;2023-08-01T02:56:51;18.64;76.14
69393;SHT31;56582;44.624;20.378;2023-08-01T02:59:16;18.60;76.36
69393;SHT31;56582;44.624;20.378;2023-08-01T03:01:43;18.59;76.31
69393;SHT31;56582;44.624;20.378;2023-08-01T03:04:08;18.56;76.22
69393;SHT31;56582;44.624;20.378;2023-08-01T03:06:37;18.55;76.25
69393;SHT31;56582;44.624;20.378;2023-08-01T03:09:02;18.49;76.58
69393;SHT31;56582;44.624;20.378;2023-08-01T03:11:28;18.47;77.03
69393;SHT31;56582;44.624;20.378;2023-08-01T03:13:53;18.50;78.08
69393;SHT31;56582;44.624;20.378;2023-08-01T03:16:19;18.57;76.71
69393;SHT31;56582;44.624;20.378;2023-08-01T03:18:44;18.56;76.17
69393;SHT31;56582;44.624;20.378;2023-08-01T03:21:10;18.68;81.56
69393;SHT31;56582;44.624;20.378;2023-08-01T03:23:36;18.64;78.53
69393;SHT31;56582;44.624;20.378;2023-08-01T03:26:02;18.78;85.16
69393;SHT31;56582;44.624;20.378;2023-08-01T03:28:28;18.68;79.71
69393;SHT31;56582;44.624;20.378;2023-08-01T03:30:53;18.74;81.95
69393;SHT31;56582;44.624;20.378;2023-08-01T03:33:20;18.68;80.60
69393;SHT31;56582;44.624;20.378;2023-08-01T03:35:46;18.64;79.77
69393;SHT31;56582;44.624;20.378;2023-08-01T03:38:11;18.73;80.47
69393;SHT31;56582;44.624;20.378;2023-08-01T03:40:36;18.77;79.68
69393;SHT31;56582;44.624;20.378;2023-08-01T03:43:02;18.76;79.27
69393;SHT31;56582;44.624;20.378;2023-08-01T03:45:27;18.81;79.73
69393;SHT31;56582;44.624;20.378;2023-08-01T03:47:53;18.90;80.50
69393;SHT31;56582;44.624;20.378;2023-08-01T03:50:18;18.93;78.79
69393;SHT31;56582;44.624;20.378;2023-08-01T03:52:44;19.01;80.52
69393;SHT31;56582;44.624;20.378;2023-08-01T03:55:10;19.07;77.51
69393;SHT31;56582;44.624;20.378;2023-08-01T03:57:36;19.00;76.25
69393;SHT31;56582;44.624;20.378;2023-08-01T04:00:05;19.01;76.25
69393;SHT31;56582;44.624;20.378;2023-08-01T04:02:31;18.95;76.40
69393;SHT31;56582;44.624;20.378;2023-08-01T04:04:56;18.97;76.24
69393;SHT31;56582;44.624;20.378;2023-08-01T04:07:21;18.87;77.98
69393;SHT31;56582;44.624;20.378;2023-08-01T04:09:47;18.74;76.99
69393;SHT31;56582;44.624;20.378;2023-08-01T04:12:12;18.84;78.33
69393;SHT31;56582;44.624;20.378;2023-08-01T04:14:38;18.93;78.39
69393;SHT31;56582;44.624;20.378;2023-08-01T04:17:03;18.98;78.33
69393;SHT31;56582;44.624;20.378;2023-08-01T04:19:29;19.01;77.91
69393;SHT31;56582;44.624;20.378;2023-08-01T04:21:54;18.93;77.47
69393;SHT31;56582;44.624;20.378;2023-08-01T04:24:20;18.87;77.94
69393;SHT31;56582;44.624;20.378;2023-08-01T04:26:45;18.93;78.04
69393;SHT31;56582;44.624;20.378;2023-08-01T04:29:10;18.93;77.45
69393;SHT31;56582;44.624;20.378;2023-08-01T04:31:40;18.88;76.83
69393;SHT31;56582;44.624;20.378;2023-08-01T04:34:05;18.87;76.77
69393;SHT31;56582;44.624;20.378;2023-08-01T04:36:31;18.88;77.36
69393;SHT31;56582;44.624;20.378;2023-08-01T04:38:56;18.86;77.24
69393;SHT31;56582;44.624;20.378;2023-08-01T04:41:22;18.91;77.23
69393;SHT31;56582;44.624;20.378;2023-08-01T04:43:47;18.88;77.59
69393;SHT31;56582;44.624;20.378;2023-08-01T04:46:13;18.90;78.38
69393;SHT31;56582;44.624;20.378;2023-08-01T04:48:38;18.93;78.25
69393;SHT31;56582;44.624;20.378;2023-08-01T04:51:03;18.98;78.22
69393;SHT31;56582;44.624;20.378;2023-08-01T04:53:29;19.12;77.99
69393;SHT31;56582;44.624;20.378;2023-08-01T04:55:54;19.28;79.97
69393;SHT31;56582;44.624;20.378;2023-08-01T04:58:20;19.44;79.59
69393;SHT31;56582;44.624;20.378;2023-08-01T05:00:45;19.80;86.15
69393;SHT31;56582;44.624;20.378;2023-08-01T05:03:10;19.83;77.91
69393;SHT31;56582;44.624;20.378;2023-08-01T05:05:36;20.00;77.53
69393;SHT31;56582;44.624;20.378;2023-08-01T05:08:01;20.04;74.77
69393;SHT31;56582;44.624;20.378;2023-08-01T05:10:27;20.20;75.05
69393;SHT31;56582;44.624;20.378;2023-08-01T05:12:52;20.37;77.02
69393;SHT31;56582;44.624;20.378;2023-08-01T05:15:18;20.53;76.31
69393;SHT31;56582;44.624;20.378;2023-08-01T05:17:43;20.68;76.21
69393;SHT31;56582;44.624;20.378;2023-08-01T05:20:09;20.82;74.93
69393;SHT31;56582;44.624;20.378;2023-08-01T05:22:34;21.02;75.81
69393;SHT31;56582;44.624;20.378;2023-08-01T05:25:00;21.23;76.57
69393;SHT31;56582;44.624;20.378;2023-08-01T05:27:27;21.33;73.94
69393;SHT31;56582;44.624;20.378;2023-08-01T05:29:52;21.46;75.75
69393;SHT31;56582;44.624;20.378;2023-08-01T05:32:18;21.61;73.99
69393;SHT31;56582;44.624;20.378;2023-08-01T05:34:43;21.71;73.62
69393;SHT31;56582;44.624;20.378;2023-08-01T05:37:09;21.85;73.45
69393;SHT31;56582;44.624;20.378;2023-08-01T05:39:35;22.01;73.58
69393;SHT31;56582;44.624;20.378;2023-08-01T05:42:01;22.18;73.16
69393;SHT31;56582;44.624;20.378;2023-08-01T05:44:26;22.25;72.33
69393;SHT31;56582;44.624;20.378;2023-08-01T05:46:51;22.42;72.88
69393;SHT31;56582;44.624;20.378;2023-08-01T05:49:17;22.66;72.52
69393;SHT31;56582;44.624;20.378;2023-08-01T05:51:42;22.78;70.05
69393;SHT31;56582;44.624;20.378;2023-08-01T05:54:08;22.97;70.99
69393;SHT31;56582;44.624;20.378;2023-08-01T05:56:33;23.15;70.82
69393;SHT31;56582;44.624;20.378;2023-08-01T05:58:58;23.32;70.99
69393;SHT31;56582;44.624;20.378;2023-08-01T06:01:24;23.41;69.67
69393;SHT31;56582;44.624;20.378;2023-08-01T06:03:50;23.52;66.65
69393;SHT31;56582;44.624;20.378;2023-08-01T06:06:15;23.62;68.71
69393;SHT31;56582;44.624;20.378;2023-08-01T06:08:41;23.76;69.77
69393;SHT31;56582;44.624;20.378;2023-08-01T06:11:06;23.90;70.05
69393;SHT31;56582;44.624;20.378;2023-08-01T06:13:32;24.07;66.21
69393;SHT31;56582;44.624;20.378;2023-08-01T06:15:57;24.22;67.92
69393;SHT31;56582;44.624;20.378;2023-08-01T06:18:23;24.30;67.51
69393;SHT31;56582;44.624;20.378;2023-08-01T06:20:48;24.38;68.85
69393;SHT31;56582;44.624;20.378;2023-08-01T06:23:14;24.52;66.31
69393;SHT31;56582;44.624;20.378;2023-08-01T06:25:39;24.62;66.14
69393;SHT31;56582;44.624;20.378;2023-08-01T06:28:04;24.68;66.36
69393;SHT31;56582;44.624;20.378;2023-08-01T06:30:30;24.80;63.12
69393;SHT31;56582;44.624;20.378;2023-08-01T06:32:56;24.88;63.55
69393;SHT31;56582;44.624;20.378;2023-08-01T06:35:21;24.98;63.94
69393;SHT31;56582;44.624;20.378;2023-08-01T06:37:47;25.05;63.46
69393;SHT31;56582;44.624;20.378;2023-08-01T06:40:12;25.19;64.56
69393;SHT31;56582;44.624;20.378;2023-08-01T06:42:37;25.31;64.86
69393;SHT31;56582;44.624;20.378;2023-08-01T06:45:04;25.36;63.46
69393;SHT31;56582;44.624;20.378;2023-08-01T06:47:29;25.54;63.23
69393;SHT31;56582;44.624;20.378;2023-08-01T06:49:55;25.65;63.27
69393;SHT31;56582;44.624;20.378;2023-08-01T06:52:21;25.74;63.56
69393;SHT31;56582;44.624;20.378;2023-08-01T06:54:46;25.74;61.94
69393;SHT31;56582;44.624;20.378;2023-08-01T06:57:11;25.89;63.10
69393;SHT31;56582;44.624;20.378;2023-08-01T06:59:37;25.88;61.37
69393;SHT31;56582;44.624;20.378;2023-08-01T07:02:02;25.96;62.09
69393;SHT31;56582;44.624;20.378;2023-08-01T07:04:28;26.01;62.37
69393;SHT31;56582;44.624;20.378;2023-08-01T07:06:53;26.11;61.41
69393;SHT31;56582;44.624;20.378;2023-08-01T07:09:19;26.19;62.17
69393;SHT31;56582;44.624;20.378;2023-08-01T07:11:44;26.08;62.42
69393;SHT31;56582;44.624;20.378;2023-08-01T07:14:10;26.32;60.53
69393;SHT31;56582;44.624;20.378;2023-08-01T07:16:35;26.29;61.10
69393;SHT31;56582;44.624;20.378;2023-08-01T07:19:01;26.29;59.85
69393;SHT31;56582;44.624;20.378;2023-08-01T07:21:26;26.33;61.09
69393;SHT31;56582;44.624;20.378;2023-08-01T07:23:52;26.35;60.92
69393;SHT31;56582;44.624;20.378;2023-08-01T07:26:17;26.49;60.54
69393;SHT31;56582;44.624;20.378;2023-08-01T07:28:43;26.61;60.56
69393;SHT31;56582;44.624;20.378;2023-08-01T07:31:08;26.61;58.64
69393;SHT31;56582;44.624;20.378;2023-08-01T07:33:34;26.69;58.96
69393;SHT31;56582;44.624;20.378;2023-08-01T07:36:00;26.70;57.81
69393;SHT31;56582;44.624;20.378;2023-08-01T07:38:26;26.77;59.65
69393;SHT31;56582;44.624;20.378;2023-08-01T07:40:57;26.84;59.15
69393;SHT31;56582;44.624;20.378;2023-08-01T07:43:22;26.90;59.07
69393;SHT31;56582;44.624;20.378;2023-08-01T07:45:48;26.95;57.07
69393;SHT31;56582;44.624;20.378;2023-08-01T07:48:15;27.12;57.13
69393;SHT31;56582;44.624;20.378;2023-08-01T07:50:41;27.16;56.74
69393;SHT31;56582;44.624;20.378;2023-08-01T07:53:06;27.28;57.54
69393;SHT31;56582;44.624;20.378;2023-08-01T07:55:35;27.35;58.46
69393;SHT31;56582;44.624;20.378;2023-08-01T07:58:00;27.39;54.18
69393;SHT31;56582;44.624;20.378;2023-08-01T08:00:26;27.55;56.92
69393;SHT31;56582;44.624;20.378;2023-08-01T08:02:53;27.63;54.55
69393;SHT31;56582;44.624;20.378;2023-08-01T08:05:18;27.74;56.39
69393;SHT31;56582;44.624;20.378;2023-08-01T08:07:44;27.78;54.45
69393;SHT31;56582;44.624;20.378;2023-08-01T08:10:09;27.73;57.50
69393;SHT31;56582;44.624;20.378;2023-08-01T08:12:35;27.82;55.12
69393;SHT31;56582;44.624;20.378;2023-08-01T08:15:00;27.86;53.34
69393;SHT31;56582;44.624;20.378;2023-08-01T08:17:25;27.85;53.96
69393;SHT31;56582;44.624;20.378;2023-08-01T08:19:51;27.87;56.28
69393;SHT31;56582;44.624;20.378;2023-08-01T08:22:16;27.89;53.57
69393;SHT31;56582;44.624;20.378;2023-08-01T08:24:42;28.03;55.27
69393;SHT31;56582;44.624;20.378;2023-08-01T08:27:07;27.96;55.61
69393;SHT31;56582;44.624;20.378;2023-08-01T08:29:33;28.11;56.98
69393;SHT31;56582;44.624;20.378;2023-08-01T08:31:58;28.14;55.61
69393;SHT31;56582;44.624;20.378;2023-08-01T08:34:24;28.21;56.12
69393;SHT31;56582;44.624;20.378;2023-08-01T08:36:50;28.25;53.42
69393;SHT31;56582;44.624;20.378;2023-08-01T08:39:18;28.36;55.81
69393;SHT31;56582;44.624;20.378;2023-08-01T08:41:49;28.38;55.39
69393;SHT31;56582;44.624;20.378;2023-08-01T08:44:15;28.49;56.11
69393;SHT31;56582;44.624;20.378;2023-08-01T08:46:44;28.61;55.29
69393;SHT31;56582;44.624;20.378;2023-08-01T08:49:10;28.58;54.02
69393;SHT31;56582;44.624;20.378;2023-08-01T08:51:37;28.65;55.18
69393;SHT31;56582;44.624;20.378;2023-08-01T08:54:04;28.66;54.20
69393;SHT31;56582;44.624;20.378;2023-08-01T08:56:30;28.71;52.59
69393;SHT31;56582;44.624;20.378;2023-08-01T08:58:56;28.65;54.05
69393;SHT31;56582;44.624;20.378;2023-08-01T09:01:22;28.69;53.22
69393;SHT31;56582;44.624;20.378;2023-08-01T09:03:47;28.83;55.47
69393;SHT31;56582;44.624;20.378;2023-08-01T09:06:18;28.71;52.70
69393;SHT31;56582;44.624;20.378;2023-08-01T09:08:51;28.78;54.49
69393;SHT31;56582;44.624;20.378;2023-08-01T09:11:17;28.91;55.71
69393;SHT31;56582;44.624;20.378;2023-08-01T09:13:43;28.98;53.73
69393;SHT31;56582;44.624;20.378;2023-08-01T09:16:09;29.09;55.03
69393;SHT31;56582;44.624;20.378;2023-08-01T09:18:46;28.92;53.77
69393;SHT31;56582;44.624;20.378;2023-08-01T09:21:11;28.96;53.46
69393;SHT31;56582;44.624;20.378;2023-08-01T09:23:37;28.92;53.15
69393;SHT31;56582;44.624;20.378;2023-08-01T09:26:12;29.07;54.33
69393;SHT31;56582;44.624;20.378;2023-08-01T09:28:38;29.10;54.93
69393;SHT31;56582;44.624;20.378;2023-08-01T09:31:03;29.17;54.94
69393;SHT31;56582;44.624;20.378;2023-08-01T09:33:38;29.16;55.40
69393;SHT31;56582;44.624;20.378;2023-08-01T09:36:04;29.33;55.40
69393;SHT31;56582;44.624;20.378;2023-08-01T09:38:34;29.46;55.37
69393;SHT31;56582;44.624;20.378;2023-08-01T09:40:59;29.51;56.59
69393;SHT31;56582;44.624;20.378;2023-08-01T09:43:33;29.55;55.44
69393;SHT31;56582;44.624;20.378;2023-08-01T09:46:00;29.51;53.00
69393;SHT31;56582;44.624;20.378;2023-08-01T09:48:27;29.50;53.88
69393;SHT31;56582;44.624;20.378;2023-08-01T09:51:04;29.68;54.33
69393;SHT31;56582;44.624;20.378;2023-08-01T09:53:31;29.85;53.30
69393;SHT31;56582;44.624;20.378;2023-08-01T09:55:59;29.64;52.30
69393;SHT31;56582;44.624;20.378;2023-08-01T09:58:31;29.68;53.77
69393;SHT31;56582;44.624;20.378;2023-08-01T10:00:57;29.71;53.79
69393;SHT31;56582;44.624;20.378;2023-08-01T10:03:23;29.70;55.01
69393;SHT31;56582;44.624;20.378;2023-08-01T10:05:49;29.80;54.42
69393;SHT31;56582;44.624;20.378;2023-08-01T10:08:18;29.84;54.40
69393;SHT31;56582;44.624;20.378;2023-08-01T10:10:45;29.92;53.95
69393;SHT31;56582;44.624;20.378;2023-08-01T10:13:13;30.04;52.80
69393;SHT31;56582;44.624;20.378;2023-08-01T10:15:41;29.86;51.57
69393;SHT31;56582;44.624;20.378;2023-08-01T10:18:08;30.02;51.72
69393;SHT31;56582;44.624;20.378;2023-08-01T10:20:35;30.01;51.87
69393;SHT31;56582;44.624;20.378;2023-08-01T10:23:02;29.92;52.00
69393;SHT31;56582;44.624;20.378;2023-08-01T10:25:29;29.77;51.63
69393;SHT31;56582;44.624;20.378;2023-08-01T10:28:02;29.80;53.55
69393;SHT31;56582;44.624;20.378;2023-08-01T10:30:29;29.78;52.68
69393;SHT31;56582;44.624;20.378;2023-08-01T10:32:59;29.81;53.36
69393;SHT31;56582;44.624;20.378;2023-08-01T10:35:33;30.04;52.63
69393;SHT31;56582;44.624;20.378;2023-08-01T10:38:24;29.95;54.31
69393;SHT31;56582;44.624;20.378;2023-08-01T10:40:50;29.91;50.27
69393;SHT31;56582;44.624;20.378;2023-08-01T10:43:21;29.94;51.88
69393;SHT31;56582;44.624;20.378;2023-08-01T10:45:46;29.98;52.28
69393;SHT31;56582;44.624;20.378;2023-08-01T10:48:12;30.11;55.35
69393;SHT31;56582;44.624;20.378;2023-08-01T10:50:39;30.26;55.28
69393;SHT31;56582;44.624;20.378;2023-08-01T10:53:06;30.15;52.21
69393;SHT31;56582;44.624;20.378;2023-08-01T10:55:43;30.19;54.46
69393;SHT31;56582;44.624;20.378;2023-08-01T10:58:09;30.32;50.68
69393;SHT31;56582;44.624;20.378;2023-08-01T11:00:34;30.43;52.22
69393;SHT31;56582;44.624;20.378;2023-08-01T11:03:00;30.37;53.87
69393;SHT31;56582;44.624;20.378;2023-08-01T11:05:25;30.50;53.19
69393;SHT31;56582;44.624;20.378;2023-08-01T11:07:54;30.63;53.43
69393;SHT31;56582;44.624;20.378;2023-08-01T11:10:21;30.55;51.57
69393;SHT31;56582;44.624;20.378;2023-08-01T11:12:47;30.44;52.51
69393;SHT31;56582;44.624;20.378;2023-08-01T11:15:14;30.49;53.02
69393;SHT31;56582;44.624;20.378;2023-08-01T11:17:49;30.39;52.64
69393;SHT31;56582;44.624;20.378;2023-08-01T11:20:18;30.36;53.57
69393;SHT31;56582;44.624;20.378;2023-08-01T11:22:54;30.35;51.94
69393;SHT31;56582;44.624;20.378;2023-08-01T11:25:35;30.42;51.11
69393;SHT31;56582;44.624;20.378;2023-08-01T11:28:06;30.60;52.05
69393;SHT31;56582;44.624;20.378;2023-08-01T11:30:33;30.70;52.09
69393;SHT31;56582;44.624;20.378;2023-08-01T11:32:59;30.73;50.10
69393;SHT31;56582;44.624;20.378;2023-08-01T11:35:25;30.84;51.56
69393;SHT31;56582;44.624;20.378;2023-08-01T11:37:51;30.80;52.09
69393;SHT31;56582;44.624;20.378;2023-08-01T11:40:17;30.94;53.32
69393;SHT31;56582;44.624;20.378;2023-08-01T11:42:48;30.98;51.38
69393;SHT31;56582;44.624;20.378;2023-08-01T11:45:16;30.81;49.77
69393;SHT31;56582;44.624;20.378;2023-08-01T11:47:46;30.67;50.92
69393;SHT31;56582;44.624;20.378;2023-08-01T11:50:12;30.66;52.81
69393;SHT31;56582;44.624;20.378;2023-08-01T11:52:37;30.74;52.83
69393;SHT31;56582;44.624;20.378;2023-08-01T11:55:03;30.91;51.99
69393;SHT31;56582;44.624;20.378;2023-08-01T11:57:30;31.06;51.41
69393;SHT31;56582;44.624;20.378;2023-08-01T11:59:56;31.17;50.30
69393;SHT31;56582;44.624;20.378;2023-08-01T12:02:26;31.02;48.77
69393;SHT31;56582;44.624;20.378;2023-08-01T12:04:52;31.02;51.57
69393;SHT31;56582;44.624;20.378;2023-08-01T12:07:18;31.11;47.69
69393;SHT31;56582;44.624;20.378;2023-08-01T12:09:54;31.12;53.18
69393;SHT31;56582;44.624;20.378;2023-08-01T12:12:20;31.04;50.55
69393;SHT31;56582;44.624;20.378;2023-08-01T12:14:45;31.35;49.61
69393;SHT31;56582;44.624;20.378;2023-08-01T12:17:11;31.25;49.91
69393;SHT31;56582;44.624;20.378;2023-08-01T12:19:37;31.17;49.70
69393;SHT31;56582;44.624;20.378;2023-08-01T12:22:02;31.32;50.65
69393;SHT31;56582;44.624;20.378;2023-08-01T12:24:28;31.24;50.74
69393;SHT31;56582;44.624;20.378;2023-08-01T12:26:58;31.10;51.73
69393;SHT31;56582;44.624;20.378;2023-08-01T12:29:23;31.25;49.71
69393;SHT31;56582;44.624;20.378;2023-08-01T12:31:49;31.35;51.47
69393;SHT31;56582;44.624;20.378;2023-08-01T12:34:14;31.46;53.08
69393;SHT31;56582;44.624;20.378;2023-08-01T12:36:40;31.42;51.83
69393;SHT31;56582;44.624;20.378;2023-08-01T12:39:09;31.50;45.45
69393;SHT31;56582;44.624;20.378;2023-08-01T12:41:37;31.50;49.72
69393;SHT31;56582;44.624;20.378;2023-08-01T12:44:03;31.42;49.61
69393;SHT31;56582;44.624;20.378;2023-08-01T12:46:29;31.46;46.94
69393;SHT31;56582;44.624;20.378;2023-08-01T12:48:54;31.27;51.29
69393;SHT31;56582;44.624;20.378;2023-08-01T12:51:19;30.91;48.43
69393;SHT31;56582;44.624;20.378;2023-08-01T12:53:45;30.95;49.38
69393;SHT31;56582;44.624;20.378;2023-08-01T12:56:11;31.24;49.27
69393;SHT31;56582;44.624;20.378;2023-08-01T12:58:36;31.39;51.02
69393;SHT31;56582;44.624;20.378;2023-08-01T13:01:03;31.56;51.01
69393;SHT31;56582;44.624;20.378;2023-08-01T13:03:31;31.43;49.28
69393;SHT31;56582;44.624;20.378;2023-08-01T13:05:57;31.41;49.38
69393;SHT31;56582;44.624;20.378;2023-08-01T13:08:23;31.53;49.91
69393;SHT31;56582;44.624;20.378;2023-08-01T13:10:49;31.65;49.24
69393;SHT31;56582;44.624;20.378;2023-08-01T13:13:18;31.70;48.16
69393;SHT31;56582;44.624;20.378;2023-08-01T13:15:44;31.61;47.04
69393;SHT31;56582;44.624;20.378;2023-08-01T13:18:10;31.63;49.94
69393;SHT31;56582;44.624;20.378;2023-08-01T13:20:36;31.62;46.17
69393;SHT31;56582;44.624;20.378;2023-08-01T13:23:02;31.58;45.90
69393;SHT31;56582;44.624;20.378;2023-08-01T13:25:29;31.50;49.05
69393;SHT31;56582;44.624;20.378;2023-08-01T13:27:55;31.63;47.12
69393;SHT31;56582;44.624;20.378;2023-08-01T13:30:20;31.76;49.63
69393;SHT31;56582;44.624;20.378;2023-08-01T13:32:46;31.45;47.86
69393;SHT31;56582;44.624;20.378;2023-08-01T13:35:12;31.46;51.23
69393;SHT31;56582;44.624;20.378;2023-08-01T13:37:37;31.62;48.86
69393;SHT31;56582;44.624;20.378;2023-08-01T13:40:03;31.56;49.03
69393;SHT31;56582;44.624;20.378;2023-08-01T13:42:29;31.49;51.71
69393;SHT31;56582;44.624;20.378;2023-08-01T13:44:55;31.22;47.65
69393;SHT31;56582;44.624;20.378;2023-08-01T13:47:21;30.97;49.68
69393;SHT31;56582;44.624;20.378;2023-08-01T13:49:47;31.02;53.02
69393;SHT31;56582;44.624;20.378;2023-08-01T13:52:12;30.91;52.65
69393;SHT31;56582;44.624;20.378;2023-08-01T13:54:38;30.94;54.23
69393;SHT31;56582;44.624;20.378;2023-08-01T13:57:03;30.71;50.06
69393;SHT31;56582;44.624;20.378;2023-08-01T13:59:29;30.79;53.40
69393;SHT31;56582;44.624;20.378;2023-08-01T14:01:54;30.92;55.24
69393;SHT31;56582;44.624;20.378;2023-08-01T14:04:20;31.01;54.06
69393;SHT31;56582;44.624;20.378;2023-08-01T14:06:46;31.04;53.15
69393;SHT31;56582;44.624;20.378;2023-08-01T14:09:11;31.17;54.22
69393;SHT31;56582;44.624;20.378;2023-08-01T14:11:37;31.08;48.58
69393;SHT31;56582;44.624;20.378;2023-08-01T14:14:03;30.76;48.21
69393;SHT31;56582;44.624;20.378;2023-08-01T14:16:29;30.64;49.09
69393;SHT31;56582;44.624;20.378;2023-08-01T14:18:55;30.73;48.47
69393;SHT31;56582;44.624;20.378;2023-08-01T14:21:21;30.94;49.82
69393;SHT31;56582;44.624;20.378;2023-08-01T14:23:46;31.15;53.96
69393;SHT31;56582;44.624;20.378;2023-08-01T14:26:12;30.95;48.60
69393;SHT31;56582;44.624;20.378;2023-08-01T14:28:38;30.79;50.28
69393;SHT31;56582;44.624;20.378;2023-08-01T14:31:04;30.67;51.42
69393;SHT31;56582;44.624;20.378;2023-08-01T14:33:29;30.53;50.81
69393;SHT31;56582;44.624;20.378;2023-08-01T14:35:55;30.37;51.24
69393;SHT31;56582;44.624;20.378;2023-08-01T14:38:21;30.05;50.97
69393;SHT31;56582;44.624;20.378;2023-08-01T14:40:47;30.00;54.97
69393;SHT31;56582;44.624;20.378;2023-08-01T14:43:12;29.84;55.59
69393;SHT31;56582;44.624;20.378;2023-08-01T14:45:38;29.88;56.06
69393;SHT31;56582;44.624;20.378;2023-08-01T14:48:05;29.57;50.71
69393;SHT31;56582;44.624;20.378;2023-08-01T14:50:31;29.58;55.31
69393;SHT31;56582;44.624;20.378;2023-08-01T14:52:56;29.51;57.58
69393;SHT31;56582;44.624;20.378;2023-08-01T14:55:22;29.51;57.24
69393;SHT31;56582;44.624;20.378;2023-08-01T14:57:48;29.38;57.98
69393;SHT31;56582;44.624;20.378;2023-08-01T15:00:15;29.31;59.51
69393;SHT31;56582;44.624;20.378;2023-08-01T15:02:40;29.17;58.39
69393;SHT31;56582;44.624;20.378;2023-08-01T15:05:06;29.29;60.61
69393;SHT31;56582;44.624;20.378;2023-08-01T15:07:31;29.30;60.63
69393;SHT31;56582;44.624;20.378;2023-08-01T15:09:57;29.26;59.85